createdAt,value
2023-08-02T00:02:16.663Z,6.15
2023-08-02T00:04:45.011Z,5.30
2023-08-02T00:07:13.312Z,9.55
2023-08-02T00:09:41.450Z,13.18
2023-08-02T00:12:09.985Z,14.20
2023-08-02T00:14:38.157Z,10.38
2023-08-02T00:17:07.958Z,4.53
2023-08-02T00:19:37.208Z,4.47
2023-08-02T00:22:05.989Z,9.65
2023-08-02T00:24:34.294Z,4.50
2023-08-02T00:27:02.407Z,4.25
2023-08-02T00:29:30.728Z,6.85
2023-08-02T00:31:58.951Z,7.07
2023-08-02T00:34:29.415Z,6.45
2023-08-02T00:36:57.641Z,6.40
2023-08-02T00:39:25.972Z,4.80
2023-08-02T00:41:54.269Z,4.60
2023-08-02T00:44:22.502Z,6.90
2023-08-02T00:46:51.068Z,2.75
2023-08-02T00:49:19.486Z,4.40
2023-08-02T00:51:49.413Z,3.90
2023-08-02T00:54:17.557Z,5.32
2023-08-02T00:56:46.141Z,6.88
2023-08-02T00:59:14.253Z,6.00
2023-08-02T01:01:42.828Z,6.20
2023-08-02T01:04:11.054Z,4.35
2023-08-02T01:06:48.111Z,8.75
2023-08-02T01:09:28.383Z,3.60
2023-08-02T01:12:07.903Z,6.43
2023-08-02T01:14:54.394Z,6.68
2023-08-02T01:17:28.446Z,6.18
2023-08-02T01:20:05.039Z,4.38
2023-08-02T01:22:33.523Z,11.30
2023-08-02T01:25:02.390Z,4.10
2023-08-02T01:27:42.691Z,5.53
2023-08-02T01:30:16.563Z,7.78
2023-08-02T01:32:45.702Z,8.15
2023-08-02T01:35:16.192Z,3.95
2023-08-02T01:37:44.925Z,5.43
2023-08-02T01:40:15.094Z,3.10
2023-08-02T01:42:43.437Z,7.20
2023-08-02T01:45:13.888Z,3.90
2023-08-02T01:47:42.124Z,4.05
2023-08-02T01:50:10.795Z,5.43
2023-08-02T01:52:40.336Z,4.05
2023-08-02T01:55:09.892Z,3.97
2023-08-02T01:57:38.082Z,8.52
2023-08-02T02:00:07.924Z,6.03
2023-08-02T02:02:36.222Z,5.43
2023-08-02T02:05:04.560Z,5.57
2023-08-02T02:07:32.841Z,4.30
2023-08-02T02:10:02.623Z,5.43
2023-08-02T02:12:31.097Z,6.38
2023-08-02T02:14:59.385Z,4.50
2023-08-02T02:17:27.544Z,3.35
2023-08-02T02:19:55.664Z,3.45
2023-08-02T02:22:23.956Z,8.63
2023-08-02T02:24:52.190Z,6.03
2023-08-02T02:27:21.679Z,4.38
2023-08-02T02:29:49.732Z,5.25
2023-08-02T02:32:18.878Z,7.88
2023-08-02T02:34:47.107Z,6.60
2023-08-02T02:37:15.280Z,4.97
2023-08-02T02:39:43.492Z,5.72
2023-08-02T02:42:11.596Z,7.78
2023-08-02T02:44:45.190Z,10.95
2023-08-02T02:47:13.720Z,12.27
2023-08-02T02:49:41.846Z,8.88
2023-08-02T02:52:11.273Z,4.60
2023-08-02T02:54:39.878Z,10.43
2023-08-02T02:57:09.006Z,6.85
2023-08-02T02:59:37.178Z,10.77
2023-08-02T03:02:07.198Z,7.88
2023-08-02T03:04:35.498Z,9.23
2023-08-02T03:07:03.958Z,5.53
2023-08-02T03:09:32.041Z,12.93
2023-08-02T03:12:00.210Z,7.88
2023-08-02T03:14:29.667Z,6.50
2023-08-02T03:16:57.778Z,6.82
2023-08-02T03:19:27.245Z,11.10
2023-08-02T03:21:55.339Z,11.90
2023-08-02T03:24:23.463Z,7.00
2023-08-02T03:26:51.592Z,9.57
2023-08-02T03:29:19.735Z,9.27
2023-08-02T03:31:48.299Z,9.25
2023-08-02T03:34:16.440Z,5.78
2023-08-02T03:36:45.945Z,9.05
2023-08-02T03:39:14.224Z,7.55
2023-08-02T03:41:42.405Z,6.47
2023-08-02T03:44:10.527Z,5.38
2023-08-02T03:46:38.747Z,10.20
2023-08-02T03:49:06.850Z,10.95
2023-08-02T03:51:35.031Z,11.48
2023-08-02T03:54:05.132Z,10.25
2023-08-02T03:56:33.418Z,5.63
2023-08-02T03:59:01.579Z,12.02
2023-08-02T04:01:29.756Z,5.85
2023-08-02T04:03:57.920Z,6.68
2023-08-02T04:06:26.101Z,10.27
2023-08-02T04:08:54.251Z,7.32
2023-08-02T04:11:23.694Z,21.42
2023-08-02T04:13:52.463Z,8.02
2023-08-02T04:16:20.560Z,10.35
2023-08-02T04:18:48.635Z,7.47
2023-08-02T04:21:20.304Z,7.43
2023-08-02T04:23:50.073Z,5.82
2023-08-02T04:26:18.321Z,9.40
2023-08-02T04:28:48.604Z,8.57
2023-08-02T04:31:17.172Z,6.70
2023-08-02T04:33:45.374Z,5.88
2023-08-02T04:36:13.544Z,5.65
2023-08-02T04:38:41.759Z,6.40
2023-08-02T04:41:16.560Z,4.82
2023-08-02T04:43:44.698Z,7.63
2023-08-02T04:46:14.908Z,4.72
2023-08-02T04:48:43.004Z,5.90
2023-08-02T04:51:12.808Z,7.75
2023-08-02T04:53:41.645Z,10.20
2023-08-02T04:56:11.447Z,3.83
2023-08-02T04:58:39.590Z,4.03
2023-08-02T05:01:07.743Z,5.97
2023-08-02T05:03:38.096Z,4.97
2023-08-02T05:06:07.996Z,4.85
2023-08-02T05:08:38.769Z,4.43
2023-08-02T05:11:07.829Z,3.22
2023-08-02T05:13:37.277Z,4.85
2023-08-02T05:16:06.522Z,2.08
2023-08-02T05:18:36.136Z,4.82
2023-08-02T05:21:12.087Z,3.38
2023-08-02T05:23:40.270Z,2.60
2023-08-02T05:26:09.341Z,4.40
2023-08-02T05:28:38.903Z,4.05
2023-08-02T05:31:11.760Z,3.70
2023-08-02T05:33:41.555Z,5.13
2023-08-02T05:36:12.727Z,2.28
2023-08-02T05:38:42.096Z,2.80
2023-08-02T05:41:10.312Z,3.30
2023-08-02T05:43:42.912Z,3.22
2023-08-02T05:46:11.200Z,1.83
2023-08-02T05:48:40.966Z,5.53
2023-08-02T05:51:09.543Z,4.72
2023-08-02T05:53:37.888Z,3.63
2023-08-02T05:56:06.828Z,2.72
2023-08-02T05:58:35.125Z,2.78
2023-08-02T06:01:07.414Z,1.95
2023-08-02T06:03:36.275Z,2.35
2023-08-02T06:06:06.076Z,5.15
2023-08-02T06:08:34.409Z,2.05
2023-08-02T06:11:03.181Z,3.97
2023-08-02T06:13:31.860Z,2.85
2023-08-02T06:16:00.401Z,1.50
2023-08-02T06:18:28.742Z,1.83
2023-08-02T06:20:57.152Z,3.03
2023-08-02T06:23:27.243Z,1.63
2023-08-02T06:25:55.572Z,1.38
2023-08-02T06:28:24.635Z,1.77
2023-08-02T06:30:54.378Z,2.00
2023-08-02T06:33:22.684Z,4.25
2023-08-02T06:35:54.861Z,1.58
2023-08-02T06:38:23.953Z,1.30
2023-08-02T06:40:56.715Z,2.92
2023-08-02T06:43:25.020Z,2.08
2023-08-02T06:45:53.303Z,2.13
2023-08-02T06:48:25.882Z,2.60
2023-08-02T06:50:57.321Z,2.47
2023-08-02T06:53:25.756Z,1.00
2023-08-02T06:55:55.265Z,1.13
2023-08-02T06:58:23.959Z,0.90
2023-08-02T07:00:52.131Z,1.40
2023-08-02T07:03:23.410Z,3.30
2023-08-02T07:05:51.776Z,3.35
2023-08-02T07:08:19.995Z,0.98
2023-08-02T07:10:48.241Z,1.73
2023-08-02T07:13:17.729Z,1.88
2023-08-02T07:15:45.867Z,1.10
2023-08-02T07:18:14.084Z,3.50
2023-08-02T07:20:42.267Z,1.15
2023-08-02T07:23:10.492Z,0.77
2023-08-02T07:25:38.647Z,1.50
2023-08-02T07:28:07.318Z,2.08
2023-08-02T07:30:36.887Z,0.45
2023-08-02T07:33:05.376Z,0.63
2023-08-02T07:35:39.239Z,1.15
2023-08-02T07:38:07.676Z,0.65
2023-08-02T07:40:36.235Z,0.35
2023-08-02T07:43:04.402Z,0.52
2023-08-02T07:45:32.600Z,2.08
2023-08-02T07:48:02.182Z,1.55
2023-08-02T07:50:30.346Z,0.30
2023-08-02T07:53:00.008Z,1.33
2023-08-02T07:55:28.405Z,0.55
2023-08-02T07:57:56.586Z,1.98
2023-08-02T08:00:26.272Z,0.45
2023-08-02T08:02:54.503Z,0.70
2023-08-02T08:05:26.421Z,0.52
2023-08-02T08:07:54.654Z,2.65
2023-08-02T08:10:22.967Z,0.90
2023-08-02T08:12:51.169Z,0.60
2023-08-02T08:15:19.494Z,1.58
2023-08-02T08:17:47.621Z,5.95
2023-08-02T08:20:15.891Z,1.88
2023-08-02T08:22:45.395Z,0.25
2023-08-02T08:25:13.529Z,0.35
2023-08-02T08:27:41.670Z,1.48
2023-08-02T08:30:11.615Z,0.15
2023-08-02T08:32:39.820Z,0.65
2023-08-02T08:35:10.550Z,0.38
2023-08-02T08:37:38.710Z,1.00
2023-08-02T08:40:18.389Z,0.25
2023-08-02T08:42:51.383Z,1.17
2023-08-02T08:45:22.402Z,1.88
2023-08-02T08:47:52.681Z,1.50
2023-08-02T08:50:23.544Z,3.03
2023-08-02T08:52:52.885Z,2.08
2023-08-02T08:55:29.052Z,2.65
2023-08-02T08:57:59.052Z,1.88
2023-08-02T09:00:32.385Z,3.22
2023-08-02T09:03:01.856Z,1.08
2023-08-02T09:05:33.091Z,1.55
2023-08-02T09:08:02.792Z,1.48
2023-08-02T09:10:34.118Z,1.17
2023-08-02T09:13:02.239Z,1.20
2023-08-02T09:15:30.383Z,0.93
2023-08-02T09:17:59.759Z,4.25
2023-08-02T09:20:29.669Z,2.03
2023-08-02T09:22:57.799Z,1.13
2023-08-02T09:25:28.286Z,0.75
2023-08-02T09:28:00.023Z,1.23
2023-08-02T09:30:30.641Z,0.95
2023-08-02T09:33:04.147Z,0.85
2023-08-02T09:35:51.496Z,0.63
2023-08-02T09:38:20.445Z,0.13
2023-08-02T09:43:21.782Z,1.52
2023-08-02T09:45:49.949Z,0.43
2023-08-02T09:48:18.087Z,1.20
2023-08-02T09:50:57.391Z,0.80
2023-08-02T09:53:27.366Z,0.68
2023-08-02T09:55:58.549Z,0.90
2023-08-02T09:58:31.960Z,3.00
2023-08-02T10:01:03.077Z,0.57
2023-08-02T10:03:34.134Z,0.80
2023-08-02T10:06:07.781Z,0.60
2023-08-02T10:08:38.243Z,2.80
2023-08-02T10:11:08.633Z,1.52
2023-08-02T10:13:42.157Z,0.38
2023-08-02T10:16:14.378Z,1.10
2023-08-02T10:18:43.967Z,0.43
2023-08-02T10:21:14.388Z,0.20
2023-08-02T10:23:43.786Z,2.58
2023-08-02T10:26:12.233Z,3.45
2023-08-02T10:28:42.445Z,0.73
2023-08-02T10:31:12.210Z,1.23
2023-08-02T10:33:40.364Z,1.17
2023-08-02T10:36:09.673Z,0.63
2023-08-02T10:38:54.151Z,0.70
2023-08-02T10:41:24.902Z,1.73
2023-08-02T10:44:15.611Z,0.60
2023-08-02T10:46:44.328Z,0.88
2023-08-02T10:49:42.668Z,3.45
2023-08-02T10:52:31.131Z,1.05
2023-08-02T10:55:16.312Z,1.02
2023-08-02T10:58:07.636Z,1.05
2023-08-02T11:00:39.595Z,0.88
2023-08-02T11:03:07.804Z,0.65
2023-08-02T11:05:44.528Z,1.38
2023-08-02T11:10:54.281Z,1.65
2023-08-02T11:13:24.302Z,1.13
2023-08-02T11:16:05.001Z,0.95
2023-08-02T11:18:33.868Z,0.70
2023-08-02T11:21:13.263Z,1.00
2023-08-02T11:26:18.803Z,2.60
2023-08-02T11:28:51.070Z,1.23
2023-08-02T11:31:25.021Z,1.20
2023-08-02T11:33:53.598Z,0.60
2023-08-02T11:36:21.956Z,3.45
2023-08-02T11:38:50.243Z,1.33
2023-08-02T11:41:20.620Z,0.55
2023-08-02T11:43:49.788Z,0.30
2023-08-02T11:46:22.912Z,0.50
2023-08-02T11:48:51.542Z,1.02
2023-08-02T11:51:22.946Z,0.20
2023-08-02T11:53:53.723Z,3.67
2023-08-02T11:56:23.552Z,0.47
2023-08-02T11:58:53.318Z,0.20
2023-08-02T12:01:23.642Z,2.08
2023-08-02T12:03:57.898Z,0.20
2023-08-02T12:06:27.224Z,0.22
2023-08-02T12:08:57.837Z,1.00
2023-08-02T12:11:27.953Z,0.52
2023-08-02T12:13:56.394Z,0.60
2023-08-02T12:16:25.963Z,1.75
2023-08-02T12:18:56.592Z,3.70
2023-08-02T12:21:25.919Z,0.65
2023-08-02T12:23:55.313Z,1.70
2023-08-02T12:26:32.497Z,1.85
2023-08-02T12:29:02.422Z,1.85
2023-08-02T12:31:43.313Z,2.08
2023-08-02T12:34:11.719Z,4.22
2023-08-02T12:36:41.921Z,2.13
2023-08-02T12:39:10.574Z,2.25
2023-08-02T12:41:38.729Z,1.15
2023-08-02T12:44:07.156Z,1.63
2023-08-02T12:46:36.710Z,0.65
2023-08-02T12:49:05.493Z,1.15
2023-08-02T12:51:33.747Z,3.30
2023-08-02T12:54:10.190Z,1.38
2023-08-02T12:56:38.398Z,0.95
2023-08-02T12:59:06.615Z,2.60
2023-08-02T13:01:37.232Z,0.88
2023-08-02T13:04:05.743Z,1.13
2023-08-02T13:06:36.135Z,1.95
2023-08-02T13:09:06.274Z,1.42
2023-08-02T13:11:35.240Z,0.68
2023-08-02T13:14:03.640Z,0.65
2023-08-02T13:16:31.919Z,3.00
2023-08-02T13:19:01.539Z,0.95
2023-08-02T13:21:29.797Z,0.50
2023-08-02T13:23:57.952Z,0.45
2023-08-02T13:26:26.125Z,1.88
2023-08-02T13:28:54.320Z,0.28
2023-08-02T13:31:22.638Z,2.05
2023-08-02T13:33:50.814Z,0.82
2023-08-02T13:36:20.306Z,0.70
2023-08-02T13:38:48.490Z,0.50
2023-08-02T13:41:16.674Z,0.45
2023-08-02T13:43:45.080Z,0.55
2023-08-02T13:46:13.263Z,0.55
2023-08-02T13:48:41.423Z,1.90
2023-08-02T13:51:09.599Z,0.40
2023-08-02T13:53:39.077Z,1.35
2023-08-02T13:56:07.192Z,1.02
2023-08-02T13:58:35.332Z,0.30
2023-08-02T14:01:03.508Z,0.43
2023-08-02T14:03:33.570Z,0.55
2023-08-02T14:06:02.367Z,2.35
2023-08-02T14:08:30.484Z,1.65
2023-08-02T14:11:00.019Z,0.65
2023-08-02T14:13:28.144Z,0.70
2023-08-02T14:15:56.294Z,1.40
2023-08-02T14:18:24.615Z,0.22
2023-08-02T14:20:52.848Z,3.22
2023-08-02T14:23:20.943Z,1.25
2023-08-02T14:25:49.068Z,0.22
2023-08-02T14:28:18.556Z,0.57
2023-08-02T14:30:46.724Z,0.28
2023-08-02T14:33:14.864Z,2.72
2023-08-02T14:35:43.242Z,0.63
2023-08-02T14:38:11.388Z,1.77
2023-08-02T14:40:39.554Z,0.75
2023-08-02T14:43:07.703Z,0.63
2023-08-02T14:45:37.353Z,0.28
2023-08-02T14:48:05.871Z,0.50
2023-08-02T14:50:34.175Z,0.77
2023-08-02T14:53:02.315Z,3.63
2023-08-02T14:55:30.394Z,3.08
2023-08-02T14:57:58.516Z,0.73
2023-08-02T15:00:26.624Z,0.50
2023-08-02T15:02:56.208Z,1.95
2023-08-02T15:05:24.630Z,1.80
2023-08-02T15:07:52.795Z,0.52
2023-08-02T15:10:20.891Z,0.93
2023-08-02T15:12:49.056Z,0.85
2023-08-02T15:15:17.418Z,2.83
2023-08-02T15:17:45.732Z,2.22
2023-08-02T15:20:15.353Z,3.85
2023-08-02T15:22:43.472Z,2.85
2023-08-02T15:25:11.762Z,3.22
2023-08-02T15:27:39.839Z,1.63
2023-08-02T15:30:09.690Z,3.38
2023-08-02T15:32:37.815Z,1.75
2023-08-02T15:35:06.481Z,5.82
2023-08-02T15:37:35.957Z,2.05
2023-08-02T15:40:07.347Z,1.58
2023-08-02T15:42:35.427Z,7.05
2023-08-02T15:45:04.072Z,5.00
2023-08-02T15:47:32.270Z,2.22
2023-08-02T15:50:00.398Z,2.67
2023-08-02T15:52:28.531Z,3.10
2023-08-02T15:54:57.992Z,1.60
2023-08-02T15:57:26.117Z,6.50
2023-08-02T15:59:54.218Z,5.95
2023-08-02T16:02:22.363Z,5.07
2023-08-02T16:04:50.539Z,5.18
2023-08-02T16:07:19.904Z,16.88
2023-08-02T16:09:48.017Z,6.55
2023-08-02T16:12:19.660Z,4.53
2023-08-02T16:14:48.077Z,5.22
2023-08-02T16:17:16.299Z,4.68
2023-08-02T16:19:44.408Z,5.85
2023-08-02T16:22:12.552Z,2.58
2023-08-02T16:24:40.683Z,5.72
2023-08-02T16:27:09.336Z,5.35
2023-08-02T16:29:38.806Z,6.68
2023-08-02T16:32:07.717Z,3.67
2023-08-02T16:34:35.892Z,8.07
2023-08-02T16:37:04.196Z,3.10
2023-08-02T16:39:32.298Z,6.47
2023-08-02T16:42:00.491Z,5.28
2023-08-02T16:44:28.637Z,7.20
2023-08-02T16:46:58.134Z,3.88
2023-08-02T16:49:27.332Z,5.05
2023-08-02T16:51:55.576Z,6.45
2023-08-02T16:54:23.823Z,4.35
2023-08-02T16:56:52.546Z,4.30
2023-08-02T16:59:20.838Z,6.10
2023-08-02T17:01:49.132Z,6.88
2023-08-02T17:04:18.627Z,8.55
2023-08-02T17:06:46.899Z,9.25
2023-08-02T17:09:15.091Z,5.68
2023-08-02T17:11:43.402Z,7.13
2023-08-02T17:14:12.047Z,4.53
2023-08-02T17:16:40.474Z,3.40
2023-08-02T17:19:08.718Z,2.63
2023-08-02T17:21:38.181Z,5.07
2023-08-02T17:24:07.771Z,7.22
2023-08-02T17:26:35.883Z,5.30
2023-08-02T17:29:04.013Z,4.43
2023-08-02T17:31:32.184Z,5.88
2023-08-02T17:34:00.454Z,4.03
2023-08-02T17:36:28.717Z,2.67
2023-08-02T17:38:58.158Z,6.47
2023-08-02T17:41:26.390Z,6.85
2023-08-02T17:43:54.762Z,6.63
2023-08-02T17:46:24.133Z,5.13
2023-08-02T17:48:53.086Z,7.72
2023-08-02T17:51:21.253Z,4.93
2023-08-02T17:53:49.708Z,6.70
2023-08-02T17:56:19.157Z,4.22
2023-08-02T17:58:47.333Z,5.20
2023-08-02T18:01:20.504Z,3.58
2023-08-02T18:03:50.435Z,4.38
2023-08-02T18:06:21.220Z,3.97
2023-08-02T18:08:50.101Z,7.47
2023-08-02T18:11:22.483Z,9.05
2023-08-02T18:13:51.319Z,6.50
2023-08-02T18:16:19.730Z,5.00
2023-08-02T18:18:48.062Z,9.88
2023-08-02T18:21:16.266Z,6.28
2023-08-02T18:23:44.445Z,8.18
2023-08-02T18:26:14.814Z,5.50
2023-08-02T18:28:45.080Z,2.92
2023-08-02T18:31:13.326Z,5.35
2023-08-02T18:33:41.572Z,5.50
2023-08-02T18:36:11.507Z,5.32
2023-08-02T18:38:41.807Z,3.95
2023-08-02T18:41:19.100Z,6.95
2023-08-02T18:43:49.869Z,6.72
2023-08-02T18:46:19.956Z,13.70
2023-08-02T18:48:49.065Z,9.02
2023-08-02T18:51:18.687Z,7.18
2023-08-02T18:53:49.304Z,7.60
2023-08-02T18:56:19.109Z,12.07
2023-08-02T18:58:49.206Z,7.40
2023-08-02T19:01:18.586Z,9.40
2023-08-02T19:03:47.248Z,9.90
2023-08-02T19:06:16.256Z,6.97
2023-08-02T19:08:46.521Z,4.63
2023-08-02T19:11:23.088Z,6.20
2023-08-02T19:13:54.215Z,8.07
2023-08-02T19:16:23.770Z,6.32
2023-08-02T19:18:52.383Z,7.63
2023-08-02T19:21:20.979Z,8.82
2023-08-02T19:23:49.252Z,12.93
2023-08-02T19:26:22.363Z,4.10
2023-08-02T19:28:52.596Z,7.57
2023-08-02T19:31:21.664Z,11.00
2023-08-02T19:33:49.908Z,8.50
2023-08-02T19:36:21.255Z,7.20
2023-08-02T19:38:49.702Z,6.38
2023-08-02T19:41:27.134Z,8.50
2023-08-02T19:43:59.302Z,3.20
2023-08-02T19:46:28.506Z,14.20
2023-08-02T19:48:57.214Z,7.60
2023-08-02T19:51:27.022Z,7.32
2023-08-02T19:53:55.345Z,10.20
2023-08-02T19:56:24.040Z,9.38
2023-08-02T19:59:00.831Z,3.58
2023-08-02T20:01:30.286Z,7.38
2023-08-02T20:03:59.396Z,7.47
2023-08-02T20:06:28.758Z,7.18
2023-08-02T20:08:57.197Z,10.13
2023-08-02T20:11:25.704Z,10.05
2023-08-02T20:13:55.775Z,7.63
2023-08-02T20:16:27.945Z,9.18
2023-08-02T20:18:58.023Z,4.38
2023-08-02T20:21:27.024Z,9.52
2023-08-02T20:24:00.557Z,8.98
2023-08-02T20:26:29.905Z,7.30
2023-08-02T20:28:58.627Z,9.07
2023-08-02T20:31:34.606Z,8.43
2023-08-02T20:34:07.806Z,4.32
2023-08-02T20:36:36.939Z,6.47
2023-08-02T20:39:07.623Z,4.93
2023-08-02T20:41:38.818Z,4.35
2023-08-02T20:44:12.578Z,6.82
2023-08-02T20:46:42.242Z,7.30
2023-08-02T20:49:13.806Z,2.15
2023-08-02T20:51:45.554Z,4.68
2023-08-02T20:54:14.905Z,4.55
2023-08-02T20:56:46.575Z,6.20
2023-08-02T20:59:18.268Z,6.85
2023-08-02T21:01:48.111Z,3.58
2023-08-02T21:04:17.213Z,5.88
2023-08-02T21:06:57.529Z,5.60
2023-08-02T21:09:33.905Z,4.80
2023-08-02T21:12:04.211Z,10.35
2023-08-02T21:14:32.375Z,7.78
2023-08-02T21:17:03.108Z,12.25
2023-08-02T21:19:37.584Z,5.45
2023-08-02T21:22:07.427Z,5.85
2023-08-02T21:24:35.687Z,4.47
2023-08-02T21:27:06.930Z,8.73
2023-08-02T21:29:36.600Z,6.30
2023-08-02T21:32:11.891Z,11.05
2023-08-02T21:34:40.098Z,7.55
2023-08-02T21:37:11.822Z,15.63
2023-08-02T21:39:45.920Z,9.85
2023-08-02T21:42:25.117Z,7.07
2023-08-02T21:44:58.078Z,8.10
2023-08-02T21:47:27.741Z,7.32
2023-08-02T21:49:55.966Z,7.57
2023-08-02T21:52:25.966Z,3.65
2023-08-02T21:54:54.055Z,6.15
2023-08-02T21:57:22.229Z,9.65
2023-08-02T21:59:51.415Z,8.38
2023-08-02T22:02:19.556Z,4.82
2023-08-02T22:04:49.098Z,7.72
2023-08-02T22:07:17.537Z,5.55
2023-08-02T22:09:45.875Z,11.38
2023-08-02T22:12:17.624Z,4.97
2023-08-02T22:14:45.951Z,14.07
2023-08-02T22:17:22.261Z,9.02
2023-08-02T22:19:54.133Z,2.38
2023-08-02T22:22:22.799Z,9.27
2023-08-02T22:24:50.885Z,3.08
2023-08-02T22:27:22.431Z,4.53
2023-08-02T22:29:58.869Z,2.90
2023-08-02T22:32:46.935Z,2.78
2023-08-02T22:35:16.762Z,4.78
2023-08-02T22:37:44.976Z,13.85
2023-08-02T22:40:15.563Z,7.50
2023-08-02T22:42:43.782Z,6.88
2023-08-02T22:45:12.175Z,2.70
2023-08-02T22:47:43.349Z,9.18
2023-08-02T22:52:50.043Z,5.10
2023-08-02T22:55:19.505Z,5.35
2023-08-02T22:57:51.275Z,4.05
2023-08-02T23:00:30.230Z,7.90
2023-08-02T23:02:59.807Z,4.63
2023-08-02T23:05:53.345Z,9.48
2023-08-02T23:08:23.873Z,7.78
2023-08-02T23:10:52.241Z,6.40
2023-08-02T23:13:25.431Z,10.68
2023-08-02T23:15:53.564Z,2.72
2023-08-02T23:18:25.125Z,5.68
2023-08-02T23:20:53.964Z,2.33
2023-08-02T23:23:27.089Z,1.20
2023-08-02T23:26:10.653Z,3.38
2023-08-02T23:28:52.894Z,6.93
2023-08-02T23:31:27.763Z,5.00
2023-08-02T23:34:03.207Z,4.85
2023-08-02T23:36:34.223Z,2.30
2023-08-02T23:39:03.917Z,4.25
2023-08-02T23:41:34.121Z,5.13
2023-08-02T23:44:02.299Z,6.65
2023-08-02T23:46:35.044Z,3.17
2023-08-02T23:49:05.406Z,10.73
2023-08-02T23:51:34.238Z,8.25
2023-08-02T23:54:06.394Z,6.80
2023-08-02T23:56:38.392Z,1.10
2023-08-02T23:59:07.531Z,12.80
